sensor_id;sensor_type;location;lat;lon;timestamp;pressure;altitude;pressure_sealevel;temperature;humidity
73151;BME280;61354;50.758;6.106;2023-02-24T00:01:59;99087.44;;;5.85;100.00
73151;BME280;61354;50.758;6.106;2023-02-24T00:04:27;99086.31;;;5.86;100.00
73151;BME280;61354;50.758;6.106;2023-02-24T00:06:53;99089.88;;;5.86;100.00
73151;BME280;61354;50.758;6.106;2023-02-24T00:09:27;99086.78;;;5.79;100.00
73151;BME280;61354;50.758;6.106;2023-02-24T00:14:25;99082.91;;;5.71;100.00
73151;BME280;61354;50.758;6.106;2023-02-24T00:16:52;99090.06;;;5.64;100.00
73151;BME280;61354;50.758;6.106;2023-02-24T00:19:21;99083.28;;;5.61;100.00
73151;BME280;61354;50.758;6.106;2023-02-24T00:21:48;99083.09;;;5.66;100.00
73151;BME280;61354;50.758;6.106;2023-02-24T00:24:14;99088.13;;;5.56;100.00
73151;BME280;61354;50.758;6.106;2023-02-24T00:26:40;99086.34;;;5.51;100.00
73151;BME280;61354;50.758;6.106;2023-02-24T00:29:08;99085.72;;;5.37;100.00
73151;BME280;61354;50.758;6.106;2023-02-24T00:31:35;99085.72;;;5.19;100.00
73151;BME280;61354;50.758;6.106;2023-02-24T00:34:04;99081.66;;;5.26;100.00
73151;BME280;61354;50.758;6.106;2023-02-24T00:36:30;99078.91;;;5.17;100.00
73151;BME280;61354;50.758;6.106;2023-02-24T00:39:03;99071.63;;;5.04;100.00
73151;BME280;61354;50.758;6.106;2023-02-24T00:41:40;99060.94;;;5.19;100.00
73151;BME280;61354;50.758;6.106;2023-02-24T00:44:08;99070.34;;;5.18;100.00
73151;BME280;61354;50.758;6.106;2023-02-24T00:46:42;99067.09;;;4.99;100.00
73151;BME280;61354;50.758;6.106;2023-02-24T00:49:14;99060.63;;;4.95;100.00
73151;BME280;61354;50.758;6.106;2023-02-24T00:51:46;99056.09;;;4.90;100.00
73151;BME280;61354;50.758;6.106;2023-02-24T00:54:14;99057.88;;;4.95;100.00
73151;BME280;61354;50.758;6.106;2023-02-24T00:56:42;99053.81;;;4.92;100.00
73151;BME280;61354;50.758;6.106;2023-02-24T00:59:09;99050.06;;;4.71;100.00
73151;BME280;61354;50.758;6.106;2023-02-24T01:01:35;99042.16;;;4.69;100.00
73151;BME280;61354;50.758;6.106;2023-02-24T01:04:02;99048.28;;;4.66;100.00
73151;BME280;61354;50.758;6.106;2023-02-24T01:06:39;99037.47;;;4.79;100.00
73151;BME280;61354;50.758;6.106;2023-02-24T01:09:06;99038.69;;;4.55;100.00
73151;BME280;61354;50.758;6.106;2023-02-24T01:11:36;99024.75;;;4.43;100.00
73151;BME280;61354;50.758;6.106;2023-02-24T01:14:25;99022.53;;;4.54;100.00
73151;BME280;61354;50.758;6.106;2023-02-24T01:16:52;99021.25;;;4.60;100.00
73151;BME280;61354;50.758;6.106;2023-02-24T01:19:20;99011.03;;;4.60;100.00
73151;BME280;61354;50.758;6.106;2023-02-24T01:21:47;99016.88;;;4.50;100.00
73151;BME280;61354;50.758;6.106;2023-02-24T01:24:16;99020.13;;;4.52;100.00
73151;BME280;61354;50.758;6.106;2023-02-24T01:26:42;99008.59;;;4.33;100.00
73151;BME280;61354;50.758;6.106;2023-02-24T01:29:08;98996.16;;;4.44;100.00
73151;BME280;61354;50.758;6.106;2023-02-24T01:31:35;99000.88;;;4.61;100.00
73151;BME280;61354;50.758;6.106;2023-02-24T01:34:03;98997.47;;;4.55;100.00
73151;BME280;61354;50.758;6.106;2023-02-24T01:36:31;99003.44;;;4.48;100.00
73151;BME280;61354;50.758;6.106;2023-02-24T01:38:58;98998.94;;;4.53;100.00
73151;BME280;61354;50.758;6.106;2023-02-24T01:41:24;99001.31;;;4.37;100.00
73151;BME280;61354;50.758;6.106;2023-02-24T01:46:30;98989.09;;;4.03;100.00
73151;BME280;61354;50.758;6.106;2023-02-24T01:49:01;98996.97;;;4.36;100.00
73151;BME280;61354;50.758;6.106;2023-02-24T01:51:34;98989.81;;;4.26;100.00
73151;BME280;61354;50.758;6.106;2023-02-24T01:54:05;98987.56;;;4.37;100.00
73151;BME280;61354;50.758;6.106;2023-02-24T01:56:34;98987.84;;;4.27;100.00
73151;BME280;61354;50.758;6.106;2023-02-24T01:59:00;98988.03;;;4.39;100.00
73151;BME280;61354;50.758;6.106;2023-02-24T02:01:26;98984.81;;;4.28;100.00
73151;BME280;61354;50.758;6.106;2023-02-24T02:03:58;98989.47;;;4.19;100.00
73151;BME280;61354;50.758;6.106;2023-02-24T02:06:28;98986.75;;;4.28;100.00
73151;BME280;61354;50.758;6.106;2023-02-24T02:08:54;98980.78;;;4.43;100.00
73151;BME280;61354;50.758;6.106;2023-02-24T02:11:21;98980.56;;;4.13;100.00
73151;BME280;61354;50.758;6.106;2023-02-24T02:13:49;98984.91;;;4.14;100.00
73151;BME280;61354;50.758;6.106;2023-02-24T02:25:17;98966.72;;;4.36;100.00
73151;BME280;61354;50.758;6.106;2023-02-24T02:42:04;98956.69;;;4.40;100.00
73151;BME280;61354;50.758;6.106;2023-02-24T02:44:48;98950.53;;;4.43;100.00
73151;BME280;61354;50.758;6.106;2023-02-24T02:47:25;98951.69;;;4.51;100.00
73151;BME280;61354;50.758;6.106;2023-02-24T02:50:16;98958.28;;;4.23;100.00
73151;BME280;61354;50.758;6.106;2023-02-24T02:52:51;98950.38;;;4.39;100.00
73151;BME280;61354;50.758;6.106;2023-02-24T02:57:56;98937.28;;;4.28;100.00
73151;BME280;61354;50.758;6.106;2023-02-24T03:00:30;98932.72;;;4.14;100.00
73151;BME280;61354;50.758;6.106;2023-02-24T03:03:06;98933.03;;;4.04;100.00
73151;BME280;61354;50.758;6.106;2023-02-24T03:05:38;98926.88;;;4.07;100.00
73151;BME280;61354;50.758;6.106;2023-02-24T03:08:14;98934.00;;;4.08;100.00
73151;BME280;61354;50.758;6.106;2023-02-24T03:10:43;98920.63;;;4.24;100.00
73151;BME280;61354;50.758;6.106;2023-02-24T03:13:16;98924.97;;;4.34;100.00
73151;BME280;61354;50.758;6.106;2023-02-24T03:15:45;98920.72;;;4.02;100.00
73151;BME280;61354;50.758;6.106;2023-02-24T03:18:19;98918.94;;;3.97;100.00
73151;BME280;61354;50.758;6.106;2023-02-24T03:20:51;98917.16;;;4.01;100.00
73151;BME280;61354;50.758;6.106;2023-02-24T03:23:24;98915.53;;;3.83;100.00
73151;BME280;61354;50.758;6.106;2023-02-24T03:26:06;98906.31;;;3.87;100.00
73151;BME280;61354;50.758;6.106;2023-02-24T03:28:50;98910.38;;;3.90;100.00
73151;BME280;61354;50.758;6.106;2023-02-24T03:31:24;98907.66;;;3.98;100.00
73151;BME280;61354;50.758;6.106;2023-02-24T03:34:15;98913.22;;;3.76;100.00
73151;BME280;61354;50.758;6.106;2023-02-24T03:36:43;98902.97;;;3.99;100.00
73151;BME280;61354;50.758;6.106;2023-02-24T03:39:09;98897.13;;;4.01;100.00
73151;BME280;61354;50.758;6.106;2023-02-24T03:42:06;98903.91;;;3.94;100.00
73151;BME280;61354;50.758;6.106;2023-02-24T03:44:35;98901.31;;;3.89;100.00
73151;BME280;61354;50.758;6.106;2023-02-24T03:47:01;98900.03;;;3.87;100.00
73151;BME280;61354;50.758;6.106;2023-02-24T03:49:26;98891.00;;;3.95;100.00
73151;BME280;61354;50.758;6.106;2023-02-24T03:57:48;98873.22;;;4.01;100.00
73151;BME280;61354;50.758;6.106;2023-02-24T04:03:20;98879.69;;;4.05;100.00
73151;BME280;61354;50.758;6.106;2023-02-24T04:08:38;98881.28;;;4.06;100.00
73151;BME280;61354;50.758;6.106;2023-02-24T04:13:50;98866.91;;;4.09;100.00
73151;BME280;61354;50.758;6.106;2023-02-24T04:16:24;98859.66;;;4.13;100.00
73151;BME280;61354;50.758;6.106;2023-02-24T04:19:03;98863.50;;;3.78;100.00
73151;BME280;61354;50.758;6.106;2023-02-24T04:21:30;98871.09;;;3.89;100.00
73151;BME280;61354;50.758;6.106;2023-02-24T04:24:01;98874.63;;;3.81;100.00
73151;BME280;61354;50.758;6.106;2023-02-24T04:26:31;98868.84;;;3.91;100.00
73151;BME280;61354;50.758;6.106;2023-02-24T04:28:57;98869.00;;;3.95;100.00
73151;BME280;61354;50.758;6.106;2023-02-24T04:31:25;98858.50;;;3.97;100.00
73151;BME280;61354;50.758;6.106;2023-02-24T04:33:51;98858.63;;;3.74;100.00
73151;BME280;61354;50.758;6.106;2023-02-24T04:36:20;98859.25;;;3.71;100.00
73151;BME280;61354;50.758;6.106;2023-02-24T04:38:46;98866.50;;;3.59;100.00
73151;BME280;61354;50.758;6.106;2023-02-24T04:41:13;98857.66;;;3.70;100.00
73151;BME280;61354;50.758;6.106;2023-02-24T04:43:47;98857.03;;;3.73;100.00
73151;BME280;61354;50.758;6.106;2023-02-24T04:46:13;98853.41;;;3.64;100.00
73151;BME280;61354;50.758;6.106;2023-02-24T04:48:39;98858.13;;;3.72;100.00
73151;BME280;61354;50.758;6.106;2023-02-24T04:51:04;98851.34;;;3.70;100.00
73151;BME280;61354;50.758;6.106;2023-02-24T04:53:31;98849.25;;;3.76;100.00
73151;BME280;61354;50.758;6.106;2023-02-24T04:56:01;98856.50;;;3.63;100.00
73151;BME280;61354;50.758;6.106;2023-02-24T04:58:33;98848.59;;;3.61;100.00
73151;BME280;61354;50.758;6.106;2023-02-24T05:00:59;98842.13;;;3.57;100.00
73151;BME280;61354;50.758;6.106;2023-02-24T05:03:32;98849.56;;;3.65;100.00
73151;BME280;61354;50.758;6.106;2023-02-24T05:06:00;98842.94;;;3.66;100.00
73151;BME280;61354;50.758;6.106;2023-02-24T05:08:27;98841.47;;;3.69;100.00
73151;BME280;61354;50.758;6.106;2023-02-24T05:10:54;98838.06;;;3.55;100.00
73151;BME280;61354;50.758;6.106;2023-02-24T05:13:24;98837.09;;;3.51;100.00
73151;BME280;61354;50.758;6.106;2023-02-24T05:15:55;98833.84;;;3.48;100.00
73151;BME280;61354;50.758;6.106;2023-02-24T05:18:21;98832.13;;;3.61;100.00
73151;BME280;61354;50.758;6.106;2023-02-24T05:20:53;98836.13;;;3.55;100.00
73151;BME280;61354;50.758;6.106;2023-02-24T05:23:43;98820.16;;;3.66;100.00
73151;BME280;61354;50.758;6.106;2023-02-24T05:26:10;98808.22;;;3.70;100.00
73151;BME280;61354;50.758;6.106;2023-02-24T05:28:38;98817.88;;;3.59;100.00
73151;BME280;61354;50.758;6.106;2023-02-24T05:33:47;98827.59;;;3.57;100.00
73151;BME280;61354;50.758;6.106;2023-02-24T05:36:16;98821.59;;;3.55;100.00
73151;BME280;61354;50.758;6.106;2023-02-24T05:38:43;98818.69;;;3.68;100.00
73151;BME280;61354;50.758;6.106;2023-02-24T05:41:12;98819.38;;;3.65;100.00
73151;BME280;61354;50.758;6.106;2023-02-24T05:43:46;98818.66;;;3.51;100.00
73151;BME280;61354;50.758;6.106;2023-02-24T05:46:14;98814.78;;;3.52;100.00
73151;BME280;61354;50.758;6.106;2023-02-24T05:48:40;98815.94;;;3.51;100.00
73151;BME280;61354;50.758;6.106;2023-02-24T05:51:06;98803.69;;;3.57;100.00
73151;BME280;61354;50.758;6.106;2023-02-24T05:53:36;98808.69;;;3.64;100.00
73151;BME280;61354;50.758;6.106;2023-02-24T05:56:09;98807.88;;;3.63;100.00
73151;BME280;61354;50.758;6.106;2023-02-24T05:58:35;98794.31;;;3.58;100.00
73151;BME280;61354;50.758;6.106;2023-02-24T06:01:11;98791.72;;;3.53;100.00
73151;BME280;61354;50.758;6.106;2023-02-24T06:03:44;98790.41;;;3.42;100.00
73151;BME280;61354;50.758;6.106;2023-02-24T06:06:14;98791.06;;;3.56;100.00
73151;BME280;61354;50.758;6.106;2023-02-24T06:08:41;98793.28;;;3.37;100.00
73151;BME280;61354;50.758;6.106;2023-02-24T06:11:08;98791.75;;;3.13;100.00
73151;BME280;61354;50.758;6.106;2023-02-24T06:13:36;98782.31;;;3.37;100.00
73151;BME280;61354;50.758;6.106;2023-02-24T06:16:03;98788.44;;;3.34;100.00
73151;BME280;61354;50.758;6.106;2023-02-24T06:18:29;98784.84;;;3.16;100.00
73151;BME280;61354;50.758;6.106;2023-02-24T06:20:54;98782.59;;;3.27;100.00
73151;BME280;61354;50.758;6.106;2023-02-24T06:23:20;98783.56;;;3.31;100.00
73151;BME280;61354;50.758;6.106;2023-02-24T06:25:46;98779.31;;;3.07;100.00
73151;BME280;61354;50.758;6.106;2023-02-24T06:28:11;98783.38;;;3.18;100.00
73151;BME280;61354;50.758;6.106;2023-02-24T06:30:37;98780.59;;;3.10;100.00
73151;BME280;61354;50.758;6.106;2023-02-24T06:33:02;98781.41;;;3.10;100.00
73151;BME280;61354;50.758;6.106;2023-02-24T06:35:30;98775.94;;;3.10;100.00
73151;BME280;61354;50.758;6.106;2023-02-24T06:37:59;98777.25;;;3.21;100.00
73151;BME280;61354;50.758;6.106;2023-02-24T06:40:24;98780.31;;;3.11;100.00
73151;BME280;61354;50.758;6.106;2023-02-24T06:42:51;98771.94;;;3.16;100.00
73151;BME280;61354;50.758;6.106;2023-02-24T06:45:20;98774.88;;;3.29;100.00
73151;BME280;61354;50.758;6.106;2023-02-24T06:47:46;98776.72;;;3.11;100.00
73151;BME280;61354;50.758;6.106;2023-02-24T06:50:14;98772.16;;;3.37;100.00
73151;BME280;61354;50.758;6.106;2023-02-24T06:52:40;98772.13;;;3.29;100.00
73151;BME280;61354;50.758;6.106;2023-02-24T06:55:08;98773.94;;;3.42;100.00
73151;BME280;61354;50.758;6.106;2023-02-24T06:57:54;98772.16;;;3.37;100.00
73151;BME280;61354;50.758;6.106;2023-02-24T07:00:26;98769.41;;;3.46;100.00
73151;BME280;61354;50.758;6.106;2023-02-24T07:03:08;98765.97;;;3.32;100.00
73151;BME280;61354;50.758;6.106;2023-02-24T07:05:48;98757.47;;;3.51;100.00
73151;BME280;61354;50.758;6.106;2023-02-24T07:08:36;98761.63;;;3.31;100.00
73151;BME280;61354;50.758;6.106;2023-02-24T07:11:03;98765.84;;;3.37;100.00
73151;BME280;61354;50.758;6.106;2023-02-24T07:13:31;98774.81;;;3.11;100.00
73151;BME280;61354;50.758;6.106;2023-02-24T07:16:01;98772.22;;;3.15;100.00
73151;BME280;61354;50.758;6.106;2023-02-24T07:18:35;98773.09;;;3.24;100.00
73151;BME280;61354;50.758;6.106;2023-02-24T07:21:05;98775.28;;;3.05;100.00
73151;BME280;61354;50.758;6.106;2023-02-24T07:23:39;98774.88;;;3.29;100.00
73151;BME280;61354;50.758;6.106;2023-02-24T07:26:07;98775.84;;;3.33;100.00
73151;BME280;61354;50.758;6.106;2023-02-24T07:28:37;98766.31;;;3.39;100.00
73151;BME280;61354;50.758;6.106;2023-02-24T07:31:16;98761.16;;;3.29;100.00
73151;BME280;61354;50.758;6.106;2023-02-24T07:33:43;98761.97;;;3.38;100.00
73151;BME280;61354;50.758;6.106;2023-02-24T07:36:13;98754.06;;;3.36;100.00
73151;BME280;61354;50.758;6.106;2023-02-24T07:38:41;98754.19;;;3.22;100.00
73151;BME280;61354;50.758;6.106;2023-02-24T07:41:08;98752.88;;;3.11;100.00
73151;BME280;61354;50.758;6.106;2023-02-24T07:43:38;98759.19;;;3.20;100.00
73151;BME280;61354;50.758;6.106;2023-02-24T07:46:14;98751.91;;;3.16;100.00
73151;BME280;61354;50.758;6.106;2023-02-24T07:48:41;98754.34;;;3.26;100.00
73151;BME280;61354;50.758;6.106;2023-02-24T07:51:08;98746.44;;;3.24;100.00
73151;BME280;61354;50.758;6.106;2023-02-24T07:53:35;98743.34;;;3.17;100.00
73151;BME280;61354;50.758;6.106;2023-02-24T07:56:14;98733.72;;;3.37;100.00
73151;BME280;61354;50.758;6.106;2023-02-24T07:58:47;98731.00;;;3.46;100.00
73151;BME280;61354;50.758;6.106;2023-02-24T08:01:17;98723.75;;;3.59;100.00
73151;BME280;61354;50.758;6.106;2023-02-24T08:03:50;98720.47;;;3.48;100.00
73151;BME280;61354;50.758;6.106;2023-02-24T08:06:19;98712.41;;;3.34;100.00
73151;BME280;61354;50.758;6.106;2023-02-24T08:08:54;98710.34;;;3.48;100.00
73151;BME280;61354;50.758;6.106;2023-02-24T08:11:24;98703.22;;;3.56;100.00
73151;BME280;61354;50.758;6.106;2023-02-24T08:13:51;98706.28;;;3.63;100.00
73151;BME280;61354;50.758;6.106;2023-02-24T08:16:18;98697.09;;;3.77;100.00
73151;BME280;61354;50.758;6.106;2023-02-24T08:18:44;98700.16;;;3.75;100.00
73151;BME280;61354;50.758;6.106;2023-02-24T08:21:16;98694.50;;;3.80;100.00
73151;BME280;61354;50.758;6.106;2023-02-24T08:23:46;98679.97;;;3.71;100.00
73151;BME280;61354;50.758;6.106;2023-02-24T08:26:11;98670.78;;;3.67;100.00
73151;BME280;61354;50.758;6.106;2023-02-24T08:28:38;98682.88;;;3.48;100.00
73151;BME280;61354;50.758;6.106;2023-02-24T08:31:04;98675.47;;;3.49;100.00
73151;BME280;61354;50.758;6.106;2023-02-24T08:33:30;98664.31;;;3.37;100.00
73151;BME280;61354;50.758;6.106;2023-02-24T08:35:56;98665.75;;;3.43;100.00
73151;BME280;61354;50.758;6.106;2023-02-24T08:38:27;98672.38;;;3.59;100.00
73151;BME280;61354;50.758;6.106;2023-02-24T08:41:05;98666.72;;;3.64;100.00
73151;BME280;61354;50.758;6.106;2023-02-24T08:43:37;98662.53;;;3.76;100.00
73151;BME280;61354;50.758;6.106;2023-02-24T08:48:56;98652.84;;;3.69;100.00
73151;BME280;61354;50.758;6.106;2023-02-24T08:51:33;98639.28;;;3.82;100.00
73151;BME280;61354;50.758;6.106;2023-02-24T08:54:04;98638.31;;;3.78;100.00
73151;BME280;61354;50.758;6.106;2023-02-24T08:56:36;98644.59;;;3.61;100.00
73151;BME280;61354;50.758;6.106;2023-02-24T08:59:10;98644.28;;;3.62;100.00
73151;BME280;61354;50.758;6.106;2023-02-24T09:01:57;98636.50;;;3.73;99.35
73151;BME280;61354;50.758;6.106;2023-02-24T09:04:43;98631.69;;;3.70;99.44
73151;BME280;61354;50.758;6.106;2023-02-24T09:07:21;98636.69;;;3.42;97.62
73151;BME280;61354;50.758;6.106;2023-02-24T09:09:47;98633.94;;;3.59;97.62
73151;BME280;61354;50.758;6.106;2023-02-24T09:12:14;98627.00;;;3.70;97.54
73151;BME280;61354;50.758;6.106;2023-02-24T09:14:56;98635.41;;;3.48;96.76
73151;BME280;61354;50.758;6.106;2023-02-24T09:17:26;98624.28;;;3.44;96.48
73151;BME280;61354;50.758;6.106;2023-02-24T09:23:01;98627.63;;;3.67;95.71
73151;BME280;61354;50.758;6.106;2023-02-24T09:25:38;98622.78;;;3.64;95.18
73151;BME280;61354;50.758;6.106;2023-02-24T09:28:20;98625.38;;;3.52;94.16
73151;BME280;61354;50.758;6.106;2023-02-24T09:30:57;98622.78;;;3.64;95.04
73151;BME280;61354;50.758;6.106;2023-02-24T09:33:26;98625.06;;;3.62;93.17
73151;BME280;61354;50.758;6.106;2023-02-24T09:36:00;98619.25;;;3.55;92.37
73151;BME280;61354;50.758;6.106;2023-02-24T09:38:40;98612.78;;;3.68;94.02
73151;BME280;61354;50.758;6.106;2023-02-24T09:41:41;98612.78;;;3.68;91.33
73151;BME280;61354;50.758;6.106;2023-02-24T09:44:35;98611.97;;;3.59;90.99
73151;BME280;61354;50.758;6.106;2023-02-24T09:50:30;98614.84;;;3.80;89.16
73151;BME280;61354;50.758;6.106;2023-02-24T09:53:15;98612.28;;;3.75;89.88
73151;BME280;61354;50.758;6.106;2023-02-24T09:55:57;98603.22;;;3.83;89.82
73151;BME280;61354;50.758;6.106;2023-02-24T10:01:36;98602.47;;;3.65;87.04
73151;BME280;61354;50.758;6.106;2023-02-24T10:12:15;98590.28;;;3.92;86.81
73151;BME280;61354;50.758;6.106;2023-02-24T10:18:22;98580.09;;;3.93;85.64
73151;BME280;61354;50.758;6.106;2023-02-24T10:20:59;98577.34;;;3.93;86.66
73151;BME280;61354;50.758;6.106;2023-02-24T10:26:42;98570.38;;;4.04;86.25
73151;BME280;61354;50.758;6.106;2023-02-24T10:34:42;98569.59;;;3.95;85.99
73151;BME280;61354;50.758;6.106;2023-02-24T10:37:14;98566.63;;;4.09;86.07
73151;BME280;61354;50.758;6.106;2023-02-24T10:39:44;98561.34;;;3.95;85.65
73151;BME280;61354;50.758;6.106;2023-02-24T10:42:25;98552.59;;;4.02;85.53
73151;BME280;61354;50.758;6.106;2023-02-24T10:45:04;98558.34;;;3.79;85.27
73151;BME280;61354;50.758;6.106;2023-02-24T10:47:38;98544.03;;;4.03;85.76
73151;BME280;61354;50.758;6.106;2023-02-24T10:53:05;98544.31;;;4.10;86.25
73151;BME280;61354;50.758;6.106;2023-02-24T11:00:53;98533.69;;;4.00;85.60
73151;BME280;61354;50.758;6.106;2023-02-24T11:03:47;98530.84;;;3.88;84.42
73151;BME280;61354;50.758;6.106;2023-02-24T11:06:30;98527.59;;;3.94;85.24
73151;BME280;61354;50.758;6.106;2023-02-24T11:09:20;98523.09;;;3.81;84.63
73151;BME280;61354;50.758;6.106;2023-02-24T11:11:46;98521.00;;;3.87;85.00
73151;BME280;61354;50.758;6.106;2023-02-24T11:14:55;98510.78;;;3.96;86.36
73151;BME280;61354;50.758;6.106;2023-02-24T11:17:49;98505.63;;;3.94;85.85
73151;BME280;61354;50.758;6.106;2023-02-24T11:22:52;98493.09;;;4.06;87.16
73151;BME280;61354;50.758;6.106;2023-02-24T11:25:34;98487.59;;;4.06;86.08
73151;BME280;61354;50.758;6.106;2023-02-24T11:28:01;98488.84;;;3.87;85.17
73151;BME280;61354;50.758;6.106;2023-02-24T11:30:40;98490.28;;;3.85;85.14
73151;BME280;61354;50.758;6.106;2023-02-24T11:36:03;98483.84;;;3.81;86.24
73151;BME280;61354;50.758;6.106;2023-02-24T11:41:11;98464.00;;;3.75;85.70
73151;BME280;61354;50.758;6.106;2023-02-24T11:43:42;98459.47;;;3.79;85.93
73151;BME280;61354;50.758;6.106;2023-02-24T11:46:11;98454.28;;;3.86;86.75
73151;BME280;61354;50.758;6.106;2023-02-24T11:48:52;98454.97;;;3.74;87.28
73151;BME280;61354;50.758;6.106;2023-02-24T11:51:27;98456.88;;;3.83;87.93
73151;BME280;61354;50.758;6.106;2023-02-24T11:54:04;98434.84;;;3.91;87.96
73151;BME280;61354;50.758;6.106;2023-02-24T11:56:33;98436.34;;;4.10;88.92
73151;BME280;61354;50.758;6.106;2023-02-24T12:01:35;98430.72;;;4.36;89.74
73151;BME280;61354;50.758;6.106;2023-02-24T12:04:57;98421.63;;;4.14;91.61
73151;BME280;61354;50.758;6.106;2023-02-24T12:07:31;98426.75;;;3.65;90.48
73151;BME280;61354;50.758;6.106;2023-02-24T12:10:30;98420.22;;;3.79;90.97
73151;BME280;61354;50.758;6.106;2023-02-24T12:15:34;98403.00;;;3.69;89.80
73151;BME280;61354;50.758;6.106;2023-02-24T12:20:47;98397.88;;;3.89;89.69
73151;BME280;61354;50.758;6.106;2023-02-24T12:26:14;98400.41;;;3.94;90.64
73151;BME280;61354;50.758;6.106;2023-02-24T12:32:06;98383.69;;;4.08;91.78
73151;BME280;61354;50.758;6.106;2023-02-24T12:34:46;98391.72;;;3.92;89.88
73151;BME280;61354;50.758;6.106;2023-02-24T12:45:11;98377.19;;;3.91;90.45
73151;BME280;61354;50.758;6.106;2023-02-24T12:56:14;98360.41;;;3.84;92.01
73151;BME280;61354;50.758;6.106;2023-02-24T12:58:42;98351.63;;;3.70;92.50
73151;BME280;61354;50.758;6.106;2023-02-24T13:01:39;98347.59;;;3.67;94.11
73151;BME280;61354;50.758;6.106;2023-02-24T13:13:01;98342.19;;;3.50;96.30
73151;BME280;61354;50.758;6.106;2023-02-24T13:15:23;98336.81;;;3.62;97.50
73151;BME280;61354;50.758;6.106;2023-02-24T13:17:51;98327.72;;;3.41;97.63
73151;BME280;61354;50.758;6.106;2023-02-24T13:20:35;98329.88;;;3.27;99.70
73151;BME280;61354;50.758;6.106;2023-02-24T13:23:03;98329.66;;;3.40;100.00
73151;BME280;61354;50.758;6.106;2023-02-24T13:25:32;98326.28;;;3.35;100.00
73151;BME280;61354;50.758;6.106;2023-02-24T13:28:02;98320.25;;;3.50;100.00
73151;BME280;61354;50.758;6.106;2023-02-24T13:30:39;98317.50;;;3.50;100.00
73151;BME280;61354;50.758;6.106;2023-02-24T13:35:45;98317.34;;;3.46;100.00
73151;BME280;61354;50.758;6.106;2023-02-24T13:38:33;98316.00;;;3.61;100.00
73151;BME280;61354;50.758;6.106;2023-02-24T13:41:20;98324.75;;;3.55;100.00
73151;BME280;61354;50.758;6.106;2023-02-24T13:46:19;98306.63;;;3.62;100.00
73151;BME280;61354;50.758;6.106;2023-02-24T13:55:06;98296.88;;;3.73;100.00
73151;BME280;61354;50.758;6.106;2023-02-24T13:57:43;98289.19;;;3.58;100.00
73151;BME280;61354;50.758;6.106;2023-02-24T14:02:53;98294.50;;;3.63;100.00
73151;BME280;61354;50.758;6.106;2023-02-24T14:05:30;98296.69;;;3.49;100.00
73151;BME280;61354;50.758;6.106;2023-02-24T14:07:58;98285.31;;;3.59;100.00
73151;BME280;61354;50.758;6.106;2023-02-24T14:10:32;98277.44;;;3.79;100.00
73151;BME280;61354;50.758;6.106;2023-02-24T14:13:07;98268.56;;;3.73;100.00
73151;BME280;61354;50.758;6.106;2023-02-24T14:15:44;98263.22;;;3.77;100.00
73151;BME280;61354;50.758;6.106;2023-02-24T14:18:20;98265.03;;;3.72;100.00
73151;BME280;61354;50.758;6.106;2023-02-24T14:20:46;98266.84;;;3.68;100.00
73151;BME280;61354;50.758;6.106;2023-02-24T14:25:46;98264.84;;;3.78;100.00
73151;BME280;61354;50.758;6.106;2023-02-24T14:28:19;98266.25;;;3.84;100.00
73151;BME280;61354;50.758;6.106;2023-02-24T14:30:52;98265.59;;;3.87;100.00
73151;BME280;61354;50.758;6.106;2023-02-24T14:33:26;98264.31;;;3.84;100.00
73151;BME280;61354;50.758;6.106;2023-02-24T14:35:52;98258.41;;;3.73;100.00
73151;BME280;61354;50.758;6.106;2023-02-24T14:38:34;98250.72;;;3.88;100.00
73151;BME280;61354;50.758;6.106;2023-02-24T14:41:05;98256.78;;;3.72;100.00
73151;BME280;61354;50.758;6.106;2023-02-24T14:43:31;98265.78;;;3.82;100.00
73151;BME280;61354;50.758;6.106;2023-02-24T14:46:04;98254.38;;;3.71;100.00
73151;BME280;61354;50.758;6.106;2023-02-24T14:48:30;98251.44;;;3.76;100.00
73151;BME280;61354;50.758;6.106;2023-02-24T14:51:37;98247.97;;;3.67;100.00
73151;BME280;61354;50.758;6.106;2023-02-24T14:54:05;98248.97;;;3.62;100.00
73151;BME280;61354;50.758;6.106;2023-02-24T14:56:33;98246.88;;;3.59;100.00
73151;BME280;61354;50.758;6.106;2023-02-24T14:59:37;98230.47;;;3.71;100.00
73151;BME280;61354;50.758;6.106;2023-02-24T15:02:13;98237.31;;;3.65;100.00
73151;BME280;61354;50.758;6.106;2023-02-24T15:04:40;98235.25;;;3.62;100.00
73151;BME280;61354;50.758;6.106;2023-02-24T15:07:17;98233.22;;;3.71;100.00
73151;BME280;61354;50.758;6.106;2023-02-24T15:09:45;98233.94;;;3.60;100.00
73151;BME280;61354;50.758;6.106;2023-02-24T15:12:29;98236.63;;;3.68;100.00
73151;BME280;61354;50.758;6.106;2023-02-24T15:15:04;98238.78;;;3.63;100.00
73151;BME280;61354;50.758;6.106;2023-02-24T15:17:32;98234.03;;;3.72;100.00
73151;BME280;61354;50.758;6.106;2023-02-24T15:20:02;98234.09;;;3.63;100.00
73151;BME280;61354;50.758;6.106;2023-02-24T15:22:32;98230.63;;;3.54;100.00
73151;BME280;61354;50.758;6.106;2023-02-24T15:25:41;98233.34;;;3.54;100.00
73151;BME280;61354;50.758;6.106;2023-02-24T15:33:43;98231.75;;;3.53;100.00
73151;BME280;61354;50.758;6.106;2023-02-24T15:36:14;98231.47;;;3.46;100.00
73151;BME280;61354;50.758;6.106;2023-02-24T15:38:42;98231.00;;;3.44;100.00
73151;BME280;61354;50.758;6.106;2023-02-24T15:41:09;98223.03;;;3.51;100.00
73151;BME280;61354;50.758;6.106;2023-02-24T15:48:44;98210.19;;;3.43;100.00
73151;BME280;61354;50.758;6.106;2023-02-24T15:51:25;98209.09;;;3.35;100.00
73151;BME280;61354;50.758;6.106;2023-02-24T15:53:53;98203.28;;;3.37;100.00
73151;BME280;61354;50.758;6.106;2023-02-24T15:56:19;98213.31;;;3.33;100.00
73151;BME280;61354;50.758;6.106;2023-02-24T15:58:44;98218.91;;;3.45;100.00
73151;BME280;61354;50.758;6.106;2023-02-24T16:01:11;98212.84;;;3.31;100.00
73151;BME280;61354;50.758;6.106;2023-02-24T16:03:38;98214.28;;;3.37;100.00
73151;BME280;61354;50.758;6.106;2023-02-24T16:06:04;98215.88;;;3.38;100.00
73151;BME280;61354;50.758;6.106;2023-02-24T16:08:30;98211.03;;;3.35;100.00
73151;BME280;61354;50.758;6.106;2023-02-24T16:10:56;98205.75;;;3.30;100.00
73151;BME280;61354;50.758;6.106;2023-02-24T16:13:24;98191.84;;;3.35;100.00